createdAt,value
2017-02-06T00:00:24.111Z,41.39
2017-02-06T00:01:34.500Z,41.3
2017-02-06T00:02:44.753Z,41.47
2017-02-06T00:03:55.047Z,41.3
2017-02-06T00:05:05.695Z,41.49
2017-02-06T00:06:16.327Z,41.49
2017-02-06T00:07:27.324Z,41.49
2017-02-06T00:08:37.577Z,41.88
2017-02-06T00:09:48.215Z,41.78
2017-02-06T00:10:58.856Z,41.78
2017-02-06T00:12:08.325Z,41.76
2017-02-06T00:13:19.216Z,41.56
2017-02-06T00:14:29.485Z,41.56
2017-02-06T00:15:39.735Z,41.49
2017-02-06T00:16:50.012Z,41.47
2017-02-06T00:18:00.256Z,41.56
2017-02-06T00:19:10.771Z,41.86
2017-02-06T00:20:20.234Z,41.88
2017-02-06T00:21:30.874Z,41.95
2017-02-06T00:22:41.111Z,41.56
2017-02-06T00:23:51.384Z,41.66
2017-02-06T00:25:01.888Z,41.59
2017-02-06T00:26:11.353Z,41.78
2017-02-06T00:27:21.989Z,41.88
2017-02-06T00:28:32.231Z,41.76
2017-02-06T00:29:42.866Z,41.59
2017-02-06T00:30:53.654Z,41.56
2017-02-06T00:32:04.289Z,41.66
2017-02-06T00:33:14.529Z,41.66
2017-02-06T00:34:25.170Z,41.88
2017-02-06T00:35:35.418Z,41.86
2017-02-06T00:36:45.953Z,41.76
2017-02-06T00:37:56.583Z,42.14
2017-02-06T00:39:07.251Z,41.88
2017-02-06T00:40:17.120Z,41.78
2017-02-06T00:41:27.759Z,41.95
2017-02-06T00:42:38.640Z,41.66
2017-02-06T00:43:49.268Z,42.05
2017-02-06T00:44:59.906Z,41.97
2017-02-06T00:46:10.545Z,41.88
2017-02-06T00:47:20.873Z,41.95
2017-02-06T00:48:31.767Z,41.95
2017-02-06T00:49:42.403Z,41.86
2017-02-06T00:50:52.647Z,41.78
2017-02-06T00:52:02.889Z,41.95
2017-02-06T00:53:13.524Z,41.95
2017-02-06T00:54:24.405Z,41.88
2017-02-06T00:55:35.337Z,41.95
2017-02-06T00:56:45.974Z,42.07
2017-02-06T00:57:56.606Z,42.05
2017-02-06T00:59:06.862Z,42.14
2017-02-06T01:00:18.043Z,42.16
2017-02-06T01:01:28.684Z,41.95
2017-02-06T01:02:39.331Z,42.05
2017-02-06T01:03:49.956Z,41.95
2017-02-06T01:05:00.600Z,42.05
2017-02-06T01:06:11.496Z,42.14
2017-02-06T01:07:22.133Z,42.24
2017-02-06T01:08:32.385Z,42.14
2017-02-06T01:09:43.031Z,42.24
2017-02-06T01:10:53.665Z,42.14
2017-02-06T01:12:04.563Z,42.24
2017-02-06T01:13:14.818Z,41.95
2017-02-06T01:14:25.066Z,41.86
2017-02-06T01:15:35.315Z,41.76
2017-02-06T01:16:45.559Z,42.24
2017-02-06T01:17:56.115Z,41.86
2017-02-06T01:19:06.769Z,42.14
2017-02-06T01:20:17.398Z,42.14
2017-02-06T01:21:28.038Z,42.24
2017-02-06T01:22:38.290Z,42.24
2017-02-06T01:23:48.844Z,42.33
2017-02-06T01:24:59.098Z,42.33
2017-02-06T01:26:09.729Z,42.33
2017-02-06T01:27:19.194Z,42.33
2017-02-06T01:28:29.843Z,42.33
2017-02-06T01:29:39.964Z,42.33
2017-02-06T01:30:50.592Z,42.24
2017-02-06T01:32:01.235Z,42.14
2017-02-06T01:33:11.498Z,42.43
2017-02-06T01:34:21.740Z,42.43
2017-02-06T01:35:31.847Z,42.53
2017-02-06T01:36:42.099Z,42.43
2017-02-06T01:37:52.728Z,42.24
2017-02-06T01:39:02.996Z,42.24
2017-02-06T01:40:13.632Z,42.43
2017-02-06T01:41:24.529Z,42.05
2017-02-06T01:42:34.770Z,42.43
2017-02-06T01:43:45.024Z,42.43
2017-02-06T01:44:55.667Z,42.14
2017-02-06T01:46:05.914Z,42.14
2017-02-06T01:47:16.801Z,42.33
2017-02-06T01:48:27.734Z,42.43
2017-02-06T01:49:38.392Z,42.43
2017-02-06T01:50:48.652Z,42.33
2017-02-06T01:51:59.297Z,42.53
2017-02-06T01:53:09.803Z,42.43
2017-02-06T01:54:20.450Z,42.43
2017-02-06T01:55:31.092Z,42.53
2017-02-06T01:56:41.729Z,42.53
2017-02-06T01:57:51.607Z,42.53
2017-02-06T01:59:02.491Z,42.53
2017-02-06T02:00:13.125Z,42.63
2017-02-06T02:01:22.976Z,42.72
2017-02-06T02:02:33.222Z,42.63
2017-02-06T02:03:42.695Z,42.53
2017-02-06T02:04:53.214Z,42.63
2017-02-06T02:06:03.073Z,42.63
2017-02-06T02:07:13.310Z,42.53
2017-02-06T02:08:23.173Z,42.72
2017-02-06T02:09:33.427Z,42.72
2017-02-06T02:10:43.155Z,42.53
2017-02-06T02:11:53.810Z,42.72
2017-02-06T02:13:04.449Z,42.82
2017-02-06T02:14:14.692Z,42.82
2017-02-06T02:15:24.938Z,42.82
2017-02-06T02:16:35.887Z,42.72
2017-02-06T02:17:46.143Z,42.72
2017-02-06T02:18:56.404Z,42.72
2017-02-06T02:20:07.083Z,42.82
2017-02-06T02:21:17.343Z,42.82
2017-02-06T02:22:28.320Z,42.82
2017-02-06T02:23:38.583Z,42.82
2017-02-06T02:24:49.224Z,42.82
2017-02-06T02:25:59.470Z,42.72
2017-02-06T02:27:09.721Z,42.72
2017-02-06T02:28:20.629Z,42.63
2017-02-06T02:29:31.276Z,42.72
2017-02-06T02:30:41.531Z,42.82
2017-02-06T02:31:51.390Z,42.63
2017-02-06T02:33:01.635Z,42.72
2017-02-06T02:34:12.139Z,42.53
2017-02-06T02:35:22.044Z,43.01
2017-02-06T02:36:31.520Z,42.72
2017-02-06T02:37:42.152Z,42.91
2017-02-06T02:38:52.410Z,42.82
2017-02-06T02:40:03.305Z,42.82
2017-02-06T02:41:13.582Z,43.01
2017-02-06T02:42:24.233Z,42.72
2017-02-06T02:43:34.894Z,43.11
2017-02-06T02:44:45.559Z,43.01
2017-02-06T02:45:56.057Z,43.01
2017-02-06T02:47:06.313Z,42.72
2017-02-06T02:48:16.970Z,43.11
2017-02-06T02:49:27.611Z,43.01
2017-02-06T02:50:38.257Z,42.91
2017-02-06T02:51:48.751Z,43.11
2017-02-06T02:52:58.999Z,42.63
2017-02-06T02:54:09.259Z,43.01
2017-02-06T02:55:19.530Z,42.63
2017-02-06T02:56:29.835Z,42.91
2017-02-06T02:57:40.787Z,42.91
2017-02-06T02:58:51.055Z,42.63
2017-02-06T03:00:00.916Z,42.63
2017-02-06T03:01:10.780Z,42.63
2017-02-06T03:02:21.031Z,42.82
2017-02-06T03:03:31.925Z,42.63
2017-02-06T03:04:42.170Z,42.72
2017-02-06T03:05:52.415Z,42.82
2017-02-06T03:07:02.291Z,42.82
2017-02-06T03:08:12.937Z,42.82
2017-02-06T03:09:23.844Z,42.63
2017-02-06T03:10:34.104Z,43.01
2017-02-06T03:11:44.341Z,42.72
2017-02-06T03:12:54.582Z,43.01
2017-02-06T03:14:04.453Z,43.01
2017-02-06T03:15:14.949Z,43.01
2017-02-06T03:16:25.596Z,42.82
2017-02-06T03:17:36.235Z,42.91
2017-02-06T03:18:46.478Z,43.01
2017-02-06T03:19:57.140Z,43.01
2017-02-06T03:21:07.244Z,43.01
2017-02-06T03:22:17.507Z,43.01
2017-02-06T03:23:28.136Z,43.01
2017-02-06T03:24:38.382Z,42.82
2017-02-06T03:25:49.023Z,43.01
2017-02-06T03:27:00.023Z,42.91
2017-02-06T03:28:10.269Z,42.72
2017-02-06T03:29:20.581Z,42.82
2017-02-06T03:30:31.255Z,42.91
2017-02-06T03:31:41.940Z,42.82
2017-02-06T03:32:52.033Z,43.2
2017-02-06T03:34:01.889Z,43.2
2017-02-06T03:35:11.757Z,43.2
2017-02-06T03:36:21.626Z,43.11
2017-02-06T03:37:31.769Z,43.2
2017-02-06T03:38:42.657Z,43.11
2017-02-06T03:39:53.315Z,43.2
2017-02-06T03:41:02.803Z,43.2
2017-02-06T03:42:13.070Z,42.91
2017-02-06T03:43:23.226Z,43.2
2017-02-06T03:44:33.341Z,43.01
2017-02-06T03:45:44.011Z,43.2
2017-02-06T03:46:53.886Z,43.2
2017-02-06T03:48:04.535Z,42.91
2017-02-06T03:49:14.399Z,42.91
2017-02-06T03:50:24.582Z,43.2
2017-02-06T03:51:34.852Z,43.11
2017-02-06T03:52:45.539Z,43.01
2017-02-06T03:53:56.197Z,43.11
2017-02-06T03:55:06.847Z,43.3
2017-02-06T03:56:17.373Z,43.3
2017-02-06T03:57:28.003Z,43.3
2017-02-06T03:58:37.086Z,43.3
2017-02-06T03:59:46.936Z,43.4
2017-02-06T04:00:57.178Z,43.4
2017-02-06T04:02:07.746Z,43.11
2017-02-06T04:03:17.984Z,43.4
2017-02-06T04:04:28.245Z,42.91
2017-02-06T04:05:38.891Z,43.4
2017-02-06T04:06:49.129Z,43.4
2017-02-06T04:08:00.011Z,43.3
2017-02-06T04:09:10.662Z,43.68
2017-02-06T04:10:21.301Z,43.68
2017-02-06T04:11:31.558Z,43.2
2017-02-06T04:12:41.795Z,43.49
2017-02-06T04:13:52.305Z,43.4
2017-02-06T04:15:02.566Z,43.4
2017-02-06T04:16:12.818Z,43.68
2017-02-06T04:17:23.084Z,43.59
2017-02-06T04:18:33.720Z,43.68
2017-02-06T04:19:43.465Z,43.76
2017-02-06T04:20:53.715Z,43.4
2017-02-06T04:22:03.572Z,43.4
2017-02-06T04:23:13.831Z,43.49
2017-02-06T04:24:23.720Z,43.49
2017-02-06T04:25:34.604Z,43.68
2017-02-06T04:26:45.270Z,43.68
2017-02-06T04:27:55.149Z,43.59
2017-02-06T04:29:05.813Z,43.68
2017-02-06T04:30:16.448Z,43.68
2017-02-06T04:31:26.865Z,43.59
2017-02-06T04:32:37.118Z,43.49
2017-02-06T04:33:47.380Z,43.68
2017-02-06T04:34:58.022Z,43.59
2017-02-06T04:36:07.503Z,43.49
2017-02-06T04:37:17.670Z,43.49
2017-02-06T04:38:27.939Z,43.59
2017-02-06T04:39:38.596Z,43.57
2017-02-06T04:40:48.845Z,43.59
2017-02-06T04:41:59.113Z,43.49
2017-02-06T04:43:09.661Z,43.47
2017-02-06T04:44:20.304Z,43.49
2017-02-06T04:45:30.564Z,43.59
2017-02-06T04:46:40.037Z,43.59
2017-02-06T04:47:49.909Z,43.49
2017-02-06T04:49:00.433Z,43.59
2017-02-06T04:50:10.687Z,43.59
2017-02-06T04:51:20.951Z,43.59
2017-02-06T04:52:30.804Z,43.59
2017-02-06T04:53:41.451Z,43.68
2017-02-06T04:54:51.951Z,43.59
2017-02-06T04:56:01.831Z,43.59
2017-02-06T04:57:11.307Z,43.49
2017-02-06T04:58:21.938Z,43.59
2017-02-06T04:59:31.806Z,43.4
2017-02-06T05:00:42.302Z,43.59
2017-02-06T05:01:52.959Z,43.4
2017-02-06T05:03:03.212Z,43.37
2017-02-06T05:04:13.859Z,43.49
2017-02-06T05:05:24.101Z,43.59
2017-02-06T05:06:34.460Z,43.4
2017-02-06T05:07:44.327Z,43.49
2017-02-06T05:08:54.888Z,43.59
2017-02-06T05:10:04.362Z,43.4
2017-02-06T05:11:14.634Z,43.57
2017-02-06T05:12:25.524Z,43.59
2017-02-06T05:13:35.774Z,43.49
2017-02-06T05:14:46.034Z,43.4
2017-02-06T05:15:56.719Z,43.49
2017-02-06T05:17:07.370Z,43.49
2017-02-06T05:18:17.900Z,43.59
2017-02-06T05:19:27.780Z,43.4
2017-02-06T05:20:38.417Z,43.49
2017-02-06T05:21:49.062Z,43.49
2017-02-06T05:22:59.307Z,43.4
2017-02-06T05:24:10.191Z,43.37
2017-02-06T05:25:20.458Z,43.47
2017-02-06T05:26:31.100Z,43.47
2017-02-06T05:27:41.735Z,43.49
2017-02-06T05:28:51.197Z,43.59
2017-02-06T05:30:01.748Z,43.4
2017-02-06T05:31:12.412Z,43.37
2017-02-06T05:32:23.068Z,43.49
2017-02-06T05:33:33.318Z,43.4
2017-02-06T05:34:42.789Z,43.37
2017-02-06T05:35:53.684Z,43.59
2017-02-06T05:37:02.763Z,43.57
2017-02-06T05:38:12.660Z,43.59
2017-02-06T05:39:22.537Z,43.49
2017-02-06T05:40:32.791Z,43.4
2017-02-06T05:41:43.731Z,43.2
2017-02-06T05:42:54.369Z,43.11
2017-02-06T05:44:05.326Z,43.01
2017-02-06T05:45:15.170Z,42.82
2017-02-06T05:46:25.845Z,42.33
2017-02-06T05:47:35.584Z,42.16
2017-02-06T05:48:45.829Z,42.46
2017-02-06T05:49:56.487Z,42.16
2017-02-06T05:51:06.751Z,42.16
2017-02-06T05:52:17.381Z,42.16
2017-02-06T05:53:28.287Z,41.97
2017-02-06T05:54:38.570Z,41.78
2017-02-06T05:55:49.199Z,42.26
2017-02-06T05:56:59.074Z,41.61
2017-02-06T05:58:09.731Z,41.71
2017-02-06T05:59:20.786Z,41.8
2017-02-06T06:00:31.434Z,41.61
2017-02-06T06:01:41.701Z,41.51
2017-02-06T06:02:51.955Z,41.32
2017-02-06T06:04:02.609Z,41.32
2017-02-06T06:05:13.168Z,41.22
2017-02-06T06:06:23.029Z,41.03
2017-02-06T06:07:33.678Z,40.86
2017-02-06T06:08:44.209Z,40.86
2017-02-06T06:09:54.883Z,40.95
2017-02-06T06:11:05.442Z,40.76
2017-02-06T06:12:15.335Z,40.66
2017-02-06T06:13:25.595Z,40.86
2017-02-06T06:14:36.232Z,40.57
2017-02-06T06:15:46.083Z,40.57
2017-02-06T06:16:56.195Z,40.57
2017-02-06T06:18:06.883Z,40.66
2017-02-06T06:19:16.763Z,40.49
2017-02-06T06:20:27.015Z,40.78
2017-02-06T06:21:37.663Z,40.69
2017-02-06T06:22:47.791Z,40.3
2017-02-06T06:23:58.426Z,40.3
2017-02-06T06:25:08.710Z,40.3
2017-02-06T06:26:19.359Z,40.49
2017-02-06T06:27:29.625Z,40.01
2017-02-06T06:28:40.558Z,39.72
2017-02-06T06:29:51.215Z,39.94
2017-02-06T06:31:01.468Z,39.94
2017-02-06T06:32:11.720Z,39.84
2017-02-06T06:33:22.373Z,39.74
2017-02-06T06:34:32.895Z,39.74
2017-02-06T06:35:43.533Z,39.74
2017-02-06T06:36:54.174Z,39.54
2017-02-06T06:38:04.467Z,39.54
2017-02-06T06:39:14.727Z,39.26
2017-02-06T06:40:24.849Z,39.45
2017-02-06T06:41:34.756Z,39.45
2017-02-06T06:42:44.670Z,39.28
2017-02-06T06:43:54.937Z,39.37
2017-02-06T06:45:04.857Z,39.57
2017-02-06T06:46:15.779Z,39.47
2017-02-06T06:47:25.653Z,39.47
2017-02-06T06:48:36.290Z,39.47
2017-02-06T06:49:46.561Z,39.57
2017-02-06T06:50:57.222Z,39.57
2017-02-06T06:52:07.727Z,39.47
2017-02-06T06:53:18.450Z,39.37
2017-02-06T06:54:28.315Z,39.57
2017-02-06T06:55:38.582Z,39.47
2017-02-06T06:56:49.249Z,39.47
2017-02-06T06:58:00.221Z,39.57
2017-02-06T06:59:10.474Z,39.57
2017-02-06T07:00:20.359Z,39.47
2017-02-06T07:01:30.628Z,39.57
2017-02-06T07:02:40.917Z,39.57
2017-02-06T07:03:51.764Z,39.47
2017-02-06T07:05:02.430Z,39.37
2017-02-06T07:06:13.094Z,39.47
2017-02-06T07:07:23.772Z,39.57
2017-02-06T07:08:34.021Z,39.57
2017-02-06T07:09:44.511Z,39.28
2017-02-06T07:10:54.761Z,39.28
2017-02-06T07:12:04.999Z,39.66
2017-02-06T07:13:15.252Z,39.95
2017-02-06T07:14:25.899Z,39.76
2017-02-06T07:15:36.842Z,39.86
2017-02-06T07:16:47.484Z,39.95
2017-02-06T07:17:57.796Z,39.86
2017-02-06T07:19:08.434Z,40.05
2017-02-06T07:20:19.063Z,40.53
2017-02-06T07:21:29.563Z,40.44
2017-02-06T07:22:39.433Z,40.34
2017-02-06T07:23:49.694Z,40.72
2017-02-06T07:25:00.342Z,40.53
2017-02-06T07:26:10.222Z,40.72
2017-02-06T07:27:21.102Z,40.7
2017-02-06T07:28:31.741Z,40.9
2017-02-06T07:29:41.996Z,40.7
2017-02-06T07:30:51.867Z,40.8
2017-02-06T07:32:02.518Z,40.8
2017-02-06T07:33:13.032Z,40.99
2017-02-06T07:34:22.908Z,41.19
2017-02-06T07:35:33.548Z,41.19
2017-02-06T07:36:44.187Z,41.38
2017-02-06T07:37:54.446Z,41.28
2017-02-06T07:39:04.566Z,41.86
2017-02-06T07:40:14.421Z,41.77
2017-02-06T07:41:25.065Z,41.84
2017-02-06T07:42:34.921Z,41.55
2017-02-06T07:43:44.803Z,41.55
2017-02-06T07:44:55.708Z,41.84
2017-02-06T07:46:05.229Z,41.75
2017-02-06T07:47:15.511Z,41.75
2017-02-06T07:48:25.378Z,42.03
2017-02-06T07:49:35.685Z,42.23
2017-02-06T07:50:45.840Z,41.84
2017-02-06T07:51:55.718Z,42.03
2017-02-06T07:53:05.971Z,41.94
2017-02-06T07:54:16.230Z,42.03
2017-02-06T07:55:26.925Z,42.03
2017-02-06T07:56:37.837Z,41.84
2017-02-06T07:57:48.088Z,42.03
2017-02-06T07:58:58.734Z,42.23
2017-02-06T08:00:08.995Z,42.32
2017-02-06T08:01:19.246Z,42.32
2017-02-06T08:02:29.781Z,42.32
2017-02-06T08:03:40.030Z,42.13
2017-02-06T08:04:50.289Z,42.02
2017-02-06T08:06:00.531Z,42.11
2017-02-06T08:07:11.180Z,41.92
2017-02-06T08:08:22.073Z,42.21
2017-02-06T08:09:32.713Z,42.21
2017-02-06T08:10:43.355Z,42.3
2017-02-06T08:11:54.014Z,42.21
2017-02-06T08:13:04.258Z,42.3
2017-02-06T08:14:14.759Z,42.4
2017-02-06T08:15:25.018Z,42.59
2017-02-06T08:16:34.899Z,42.3
2017-02-06T08:17:44.764Z,42.49
2017-02-06T08:18:55.408Z,42.3
2017-02-06T08:20:06.305Z,42.4
2017-02-06T08:21:16.941Z,42.4
2017-02-06T08:22:27.412Z,42.3
2017-02-06T08:23:38.072Z,42.11
2017-02-06T08:24:49.011Z,42.49
2017-02-06T08:25:59.133Z,42.49
2017-02-06T08:27:09.784Z,42.3
2017-02-06T08:28:20.435Z,42.4
2017-02-06T08:29:30.684Z,42.49
2017-02-06T08:30:41.328Z,42.11
2017-02-06T08:31:51.945Z,42.11
2017-02-06T08:33:02.215Z,42.3
2017-02-06T08:34:12.879Z,42.49
2017-02-06T08:35:23.135Z,42.11
2017-02-06T08:36:33.788Z,42.4
2017-02-06T08:37:44.327Z,42.21
2017-02-06T08:38:54.995Z,42.11
2017-02-06T08:40:05.296Z,42.11
2017-02-06T08:41:15.936Z,42.21
2017-02-06T08:42:26.193Z,42.4
2017-02-06T08:43:36.359Z,42.21
2017-02-06T08:44:46.666Z,42.21
2017-02-06T08:45:57.329Z,42.21
2017-02-06T08:47:07.585Z,42.21
2017-02-06T08:48:17.831Z,42.4
2017-02-06T08:49:28.768Z,42.4
2017-02-06T08:50:39.022Z,42.11
2017-02-06T08:51:49.686Z,42.47
2017-02-06T08:52:59.545Z,42.21
2017-02-06T08:54:10.178Z,42.28
2017-02-06T08:55:21.070Z,42.19
2017-02-06T08:56:31.722Z,42.21
2017-02-06T08:57:41.968Z,42.47
2017-02-06T08:58:52.624Z,42.19
2017-02-06T09:00:03.272Z,42.4
2017-02-06T09:01:14.089Z,42.21
2017-02-06T09:02:24.351Z,42.19
2017-02-06T09:03:34.607Z,42.38
2017-02-06T09:04:44.516Z,42.21
2017-02-06T09:05:54.763Z,42.4
2017-02-06T09:07:04.539Z,42.38
2017-02-06T09:08:14.792Z,42.47
2017-02-06T09:09:25.727Z,42.19
2017-02-06T09:10:35.988Z,42.38
2017-02-06T09:11:46.629Z,42.19
2017-02-06T09:12:56.742Z,42.19
2017-02-06T09:14:07.383Z,42.28
2017-02-06T09:15:16.892Z,42.38
2017-02-06T09:16:27.148Z,42.09
2017-02-06T09:17:37.022Z,42.38
2017-02-06T09:18:47.158Z,42.47
2017-02-06T09:19:57.434Z,42.38
2017-02-06T09:21:07.684Z,42.28
2017-02-06T09:22:18.227Z,42.47
2017-02-06T09:23:28.915Z,42.38
2017-02-06T09:24:39.031Z,42.38
2017-02-06T09:25:49.704Z,42.47
2017-02-06T09:26:59.635Z,42.38
2017-02-06T09:28:10.280Z,42.47
2017-02-06T09:29:20.526Z,42.38
2017-02-06T09:30:30.249Z,42.47
2017-02-06T09:31:40.096Z,42.38
2017-02-06T09:32:50.741Z,42.28
2017-02-06T09:34:00.999Z,42.47
2017-02-06T09:35:11.676Z,42.28
2017-02-06T09:36:22.567Z,42.09
2017-02-06T09:37:33.205Z,42.28
2017-02-06T09:38:43.878Z,42.28
2017-02-06T09:39:54.147Z,42.09
2017-02-06T09:41:04.793Z,42.38
2017-02-06T09:42:15.407Z,42.28
2017-02-06T09:43:25.675Z,42.28
2017-02-06T09:44:35.529Z,42.38
2017-02-06T09:45:46.175Z,42.38
2017-02-06T09:46:56.429Z,42.38
2017-02-06T09:48:06.594Z,42.47
2017-02-06T09:49:17.235Z,42.47
2017-02-06T09:50:27.892Z,42.47
2017-02-06T09:51:38.185Z,42.28
2017-02-06T09:52:48.429Z,42.28
2017-02-06T09:53:58.544Z,42.38
2017-02-06T09:55:08.798Z,42.47
2017-02-06T09:56:19.437Z,42.47
2017-02-06T09:57:29.685Z,42.38
2017-02-06T09:58:39.530Z,42.47
2017-02-06T09:59:50.425Z,42.38
2017-02-06T10:00:59.912Z,42.38
2017-02-06T10:02:10.171Z,42.47
2017-02-06T10:03:20.048Z,42.57
2017-02-06T10:04:30.299Z,42.19
2017-02-06T10:05:40.808Z,42.57
2017-02-06T10:06:50.706Z,42.28
2017-02-06T10:08:00.952Z,42.19
2017-02-06T10:09:10.958Z,42.19
2017-02-06T10:10:21.233Z,42.38
2017-02-06T10:11:31.803Z,42.38
2017-02-06T10:12:41.683Z,42.38
2017-02-06T10:13:52.358Z,42.28
2017-02-06T10:15:03.013Z,42.38
2017-02-06T10:16:13.264Z,42.38
2017-02-06T10:17:24.152Z,42.28
2017-02-06T10:18:34.399Z,42.28
2017-02-06T10:19:44.663Z,42.28
2017-02-06T10:20:54.142Z,42.19
2017-02-06T10:22:04.395Z,42.09
2017-02-06T10:23:14.905Z,42.09
2017-02-06T10:24:25.551Z,42.09
2017-02-06T10:25:35.417Z,42.09
2017-02-06T10:26:45.671Z,41.89
2017-02-06T10:27:55.923Z,41.89
2017-02-06T10:29:06.052Z,41.89
2017-02-06T10:30:16.693Z,41.89
2017-02-06T10:31:26.947Z,42.11
2017-02-06T10:32:37.596Z,41.89
2017-02-06T10:33:47.611Z,42.09
2017-02-06T10:34:58.119Z,41.89
2017-02-06T10:36:08.015Z,42.28
2017-02-06T10:37:18.279Z,42.19
2017-02-06T10:38:28.523Z,42.19
2017-02-06T10:39:38.780Z,42.09
2017-02-06T10:40:48.784Z,42.19
2017-02-06T10:41:59.439Z,42.28
2017-02-06T10:43:09.319Z,42.3
2017-02-06T10:44:19.945Z,42.28
2017-02-06T10:45:30.599Z,42.49
2017-02-06T10:46:41.091Z,42.38
2017-02-06T10:47:51.730Z,42.21
2017-02-06T10:49:01.985Z,42.19
2017-02-06T10:50:12.249Z,42.28
2017-02-06T10:51:22.334Z,42.3
2017-02-06T10:52:32.841Z,42.3
2017-02-06T10:53:43.098Z,42.19
2017-02-06T10:54:52.982Z,42.19
2017-02-06T10:56:03.256Z,42.28
2017-02-06T10:57:13.115Z,42.21
2017-02-06T10:58:23.231Z,42.28
2017-02-06T10:59:33.912Z,42.02
2017-02-06T11:00:43.396Z,42.3
2017-02-06T11:01:53.660Z,42.02
2017-02-06T11:03:03.932Z,42.09
2017-02-06T11:04:14.516Z,42.11
2017-02-06T11:05:24.398Z,42.11
2017-02-06T11:06:35.091Z,42.09
2017-02-06T11:07:45.769Z,42.11
2017-02-06T11:08:56.407Z,41.92
2017-02-06T11:10:06.805Z,41.92
2017-02-06T11:11:17.450Z,41.92
2017-02-06T11:12:28.121Z,42.02
2017-02-06T11:13:38.387Z,41.92
2017-02-06T11:14:49.052Z,41.92
2017-02-06T11:15:59.184Z,42.02
2017-02-06T11:17:09.042Z,41.92
2017-02-06T11:18:19.732Z,41.92
2017-02-06T11:19:29.988Z,42.02
2017-02-06T11:20:40.278Z,41.92
2017-02-06T11:21:51.173Z,41.92
2017-02-06T11:23:01.038Z,41.8
2017-02-06T11:24:10.916Z,41.82
2017-02-06T11:25:21.188Z,41.82
2017-02-06T11:26:31.849Z,42.02
2017-02-06T11:27:42.359Z,41.92
2017-02-06T11:28:52.667Z,42.11
2017-02-06T11:30:02.911Z,42.11
2017-02-06T11:31:13.182Z,42.11
2017-02-06T11:32:23.809Z,42.11
2017-02-06T11:33:33.153Z,41.82
2017-02-06T11:34:43.443Z,41.92
2017-02-06T11:35:53.708Z,41.92
2017-02-06T11:37:04.375Z,42.02
2017-02-06T11:38:14.271Z,41.82
2017-02-06T11:39:24.819Z,41.82
2017-02-06T11:40:35.460Z,42.02
2017-02-06T11:41:45.711Z,41.92
2017-02-06T11:42:55.342Z,42.02
2017-02-06T11:44:05.983Z,41.82
2017-02-06T11:45:16.105Z,42.02
2017-02-06T11:46:26.392Z,41.82
2017-02-06T11:47:37.162Z,41.92
2017-02-06T11:48:47.021Z,42.02
2017-02-06T11:49:57.664Z,41.92
2017-02-06T11:51:08.152Z,42.02
2017-02-06T11:52:18.403Z,42.02
2017-02-06T11:53:29.072Z,41.92
2017-02-06T11:54:39.348Z,42.02
2017-02-06T11:55:50.018Z,41.92
2017-02-06T11:57:00.958Z,42.02
2017-02-06T11:58:11.641Z,41.92
2017-02-06T11:59:22.300Z,41.82
2017-02-06T12:00:32.575Z,42.02
2017-02-06T12:01:43.232Z,41.82
2017-02-06T12:02:53.335Z,42.02
2017-02-06T12:04:03.196Z,41.82
2017-02-06T12:05:13.439Z,41.92
2017-02-06T12:06:24.075Z,41.92
2017-02-06T12:07:33.548Z,42.11
2017-02-06T12:08:44.067Z,41.92
2017-02-06T12:09:54.327Z,42.02
2017-02-06T12:11:04.196Z,42.02
2017-02-06T12:12:14.448Z,42.02
2017-02-06T12:13:24.320Z,42.02
2017-02-06T12:14:35.370Z,41.82
2017-02-06T12:15:46.095Z,41.92
2017-02-06T12:16:56.775Z,41.82
2017-02-06T12:18:07.036Z,41.92
2017-02-06T12:19:17.571Z,41.82
2017-02-06T12:20:28.105Z,41.92
2017-02-06T12:21:37.963Z,41.92
2017-02-06T12:22:48.207Z,41.82
2017-02-06T12:23:57.676Z,41.92
2017-02-06T12:25:08.312Z,41.92
2017-02-06T12:26:18.448Z,42.11
2017-02-06T12:27:29.457Z,41.92
2017-02-06T12:28:40.423Z,42.02
2017-02-06T12:29:49.900Z,42.11
2017-02-06T12:30:59.782Z,41.82
2017-02-06T12:32:10.285Z,42.11
2017-02-06T12:33:20.158Z,41.92
2017-02-06T12:34:29.643Z,41.92
2017-02-06T12:35:40.283Z,42.11
2017-02-06T12:36:50.137Z,41.92
2017-02-06T12:38:01.038Z,41.89
2017-02-06T12:39:10.905Z,41.92
2017-02-06T12:40:20.770Z,41.92
2017-02-06T12:41:31.020Z,41.92
2017-02-06T12:42:41.275Z,41.82
2017-02-06T12:43:51.768Z,42.11
2017-02-06T12:45:02.007Z,41.8
2017-02-06T12:46:12.264Z,41.92
2017-02-06T12:47:22.923Z,41.92
2017-02-06T12:48:33.555Z,42.11
2017-02-06T12:49:44.518Z,42.09
2017-02-06T12:50:54.787Z,42.09
2017-02-06T12:52:05.039Z,42.19
2017-02-06T12:53:15.318Z,42.09
2017-02-06T12:54:25.998Z,42.09
2017-02-06T12:55:36.565Z,42.09
2017-02-06T12:56:46.428Z,41.99
2017-02-06T12:57:56.678Z,42.19
2017-02-06T12:59:06.978Z,42.11
2017-02-06T13:00:17.634Z,41.92
2017-02-06T13:01:28.049Z,41.99
2017-02-06T13:02:38.692Z,41.92
2017-02-06T13:03:48.958Z,41.99
2017-02-06T13:04:59.214Z,41.92
2017-02-06T13:06:09.079Z,41.99
2017-02-06T13:07:20.020Z,42.02
2017-02-06T13:08:30.659Z,42.21
2017-02-06T13:09:40.531Z,42.02
2017-02-06T13:10:50.804Z,41.99
2017-02-06T13:12:01.063Z,42.11
2017-02-06T13:13:11.971Z,41.99
2017-02-06T13:14:22.222Z,42.09
2017-02-06T13:15:32.885Z,41.89
2017-02-06T13:16:43.531Z,42.09
2017-02-06T13:17:54.173Z,42.21
2017-02-06T13:19:03.973Z,41.99
2017-02-06T13:20:14.613Z,41.99
2017-02-06T13:21:25.283Z,42.09
2017-02-06T13:22:35.596Z,41.99
2017-02-06T13:23:45.849Z,41.99
2017-02-06T13:24:56.792Z,42.19
2017-02-06T13:26:07.042Z,42.19
2017-02-06T13:27:16.910Z,42.28
2017-02-06T13:28:26.407Z,42.28
2017-02-06T13:29:36.655Z,42.19
2017-02-06T13:30:46.761Z,42.19
2017-02-06T13:31:57.423Z,42.28
2017-02-06T13:33:08.094Z,42.28
2017-02-06T13:34:18.105Z,41.99
2017-02-06T13:35:28.745Z,42.38
2017-02-06T13:36:39.635Z,42.28
2017-02-06T13:37:50.296Z,42.28
2017-02-06T13:39:00.934Z,41.99
2017-02-06T13:40:11.214Z,42.28
2017-02-06T13:41:22.156Z,42.28
2017-02-06T13:42:32.258Z,42.28
2017-02-06T13:43:42.892Z,42.28
2017-02-06T13:44:53.148Z,42.28
2017-02-06T13:46:03.703Z,42.28
2017-02-06T13:47:14.351Z,42.28
2017-02-06T13:48:24.453Z,42.19
2017-02-06T13:49:35.096Z,41.89
2017-02-06T13:50:45.337Z,41.99
2017-02-06T13:51:55.581Z,42.09
2017-02-06T13:53:05.834Z,42.09
2017-02-06T13:54:15.949Z,42.47
2017-02-06T13:55:26.221Z,42.09
2017-02-06T13:56:36.888Z,42.09
2017-02-06T13:57:47.523Z,42.19
2017-02-06T13:58:57.413Z,41.89
2017-02-06T14:00:07.969Z,42.38
2017-02-06T14:01:18.669Z,42.19
2017-02-06T14:02:29.312Z,41.99
2017-02-06T14:03:39.217Z,42.38
2017-02-06T14:04:49.084Z,42.28
2017-02-06T14:05:59.579Z,42.28
2017-02-06T14:07:09.834Z,42.28
2017-02-06T14:08:20.073Z,42.28
2017-02-06T14:09:30.320Z,42.38
2017-02-06T14:10:40.957Z,42.28
2017-02-06T14:11:51.072Z,42.38
2017-02-06T14:13:01.333Z,42.19
2017-02-06T14:14:11.586Z,42.19
2017-02-06T14:15:21.451Z,42.19
2017-02-06T14:16:31.756Z,41.89
2017-02-06T14:17:41.854Z,41.89
2017-02-06T14:18:52.498Z,42.09
2017-02-06T14:20:02.371Z,42.09
2017-02-06T14:21:12.621Z,41.99
2017-02-06T14:22:22.478Z,41.89
2017-02-06T14:23:32.990Z,41.89
2017-02-06T14:24:43.632Z,42.09
2017-02-06T14:25:53.150Z,41.89
2017-02-06T14:27:03.007Z,42.09
2017-02-06T14:28:13.277Z,41.89
2017-02-06T14:29:24.604Z,42.09
2017-02-06T14:30:34.901Z,42.09
2017-02-06T14:31:45.160Z,41.89
2017-02-06T14:32:56.091Z,42.09
2017-02-06T14:34:06.743Z,42.09
2017-02-06T14:35:16.916Z,42.09
2017-02-06T14:36:27.177Z,42.28
2017-02-06T14:37:37.430Z,42.09
2017-02-06T14:38:47.693Z,42.28
2017-02-06T14:39:57.955Z,42.09
2017-02-06T14:41:08.375Z,42.19
2017-02-06T14:42:18.627Z,42.19
2017-02-06T14:43:28.878Z,42.28
2017-02-06T14:44:39.125Z,42.19
2017-02-06T14:45:49.763Z,42.19
2017-02-06T14:47:00.656Z,42.28
2017-02-06T14:48:10.923Z,42.28
2017-02-06T14:49:21.179Z,42.19
2017-02-06T14:50:31.441Z,42.28
2017-02-06T14:51:41.997Z,42.28
2017-02-06T14:52:52.557Z,42.28
2017-02-06T14:54:02.811Z,42.28
2017-02-06T14:55:13.103Z,42.28
2017-02-06T14:56:23.764Z,42.19
2017-02-06T14:57:34.420Z,42.28
2017-02-06T14:59:53.872Z,42.28
2017-02-06T15:01:04.120Z,42.28
2017-02-06T15:02:14.375Z,42.19
2017-02-06T15:03:24.622Z,42.28
2017-02-06T15:04:35.125Z,42.28
2017-02-06T15:05:45.766Z,42.28
2017-02-06T15:06:56.020Z,42.09
2017-02-06T15:08:06.685Z,42.19
2017-02-06T15:09:17.342Z,41.99